Time;durP1;ratioP1;P1;durP2;ratioP2;P2;SDS_P1;SDS_P2;PMS_P1;PMS_P2;Temp;Humidity;BMP_temperature;BMP_pressure;BME280_temperature;BME280_humidity;BME280_pressure;Samples;Min_cycle;Max_cycle;Signal;HPM_P1;HPM_P2
2022/10/05 00:00:25;;;;;;;5.92;3.33;;;;;;;9.18;72.32;101178.55;1825401;78;21113;-87
2022/10/05 00:02:52;;;;;;;4.00;3.35;;;;;;;9.16;72.42;101178.20;1824994;78;20927;-86
2022/10/05 00:05:24;;;;;;;5.12;3.45;;;;;;;9.15;72.47;101174.75;1824907;78;21017;-86
2022/10/05 00:07:52;;;;;;;4.92;3.65;;;;;;;9.12;72.57;101177.05;1823902;78;20978;-87
2022/10/05 00:10:19;;;;;;;5.78;3.45;;;;;;;9.10;72.63;101176.73;1824912;78;20923;-86
2022/10/05 00:12:47;;;;;;;5.05;2.98;;;;;;;9.07;72.64;101184.70;1825023;78;21152;-87
2022/10/05 00:15:17;;;;;;;4.72;3.58;;;;;;;9.04;72.71;101181.77;1824867;78;20868;-87
2022/10/05 00:17:45;;;;;;;4.87;3.62;;;;;;;9.02;72.80;101187.52;1824871;78;20966;-87
2022/10/05 00:20:24;;;;;;;6.80;3.40;;;;;;;9.00;72.88;101193.28;1824901;78;21356;-87
2022/10/05 00:22:56;;;;;;;4.05;3.67;;;;;;;9.01;72.85;101196.30;1825054;78;20947;-87
2022/10/05 00:25:23;;;;;;;8.95;4.17;;;;;;;9.02;72.88;101192.75;1825097;78;21984;-86
2022/10/05 00:27:56;;;;;;;4.95;3.80;;;;;;;9.01;72.82;101200.22;1824869;78;21010;-86
2022/10/05 00:30:28;;;;;;;5.00;2.80;;;;;;;8.98;72.71;101211.27;1824961;78;20930;-86
2022/10/05 00:32:54;;;;;;;3.47;3.15;;;;;;;8.93;72.67;101211.47;1824699;78;21465;-86
2022/10/05 00:35:21;;;;;;;4.58;3.25;;;;;;;8.90;72.75;101211.62;1825074;78;21400;-87
2022/10/05 00:37:54;;;;;;;4.78;3.87;;;;;;;8.89;72.79;101211.20;1825060;78;21122;-86
2022/10/05 00:40:48;;;;;;;5.25;3.35;;;;;;;8.88;72.85;101205.60;1824968;78;20919;-85
2022/10/05 00:43:39;;;;;;;4.62;3.08;;;;;;;8.85;72.99;101206.59;1825143;78;20844;-86
2022/10/05 00:46:29;;;;;;;4.28;3.20;;;;;;;8.85;73.13;101213.13;1825115;78;20891;-88
2022/10/05 00:49:06;;;;;;;3.37;3.02;;;;;;;8.84;73.29;101214.49;1825218;78;20919;-85
2022/10/05 00:51:36;;;;;;;3.75;2.98;;;;;;;8.82;73.51;101226.78;1824886;78;21763;-86
2022/10/05 00:54:29;;;;;;;3.92;3.27;;;;;;;8.81;73.70;101218.56;1824902;78;20966;-86
2022/10/05 00:57:17;;;;;;;3.85;3.17;;;;;;;8.79;73.84;101225.62;1825153;78;20879;-86
2022/10/05 00:59:55;;;;;;;4.72;3.47;;;;;;;8.78;74.11;101230.44;1825223;78;20907;-86
2022/10/05 01:02:55;;;;;;;6.08;4.05;;;;;;;8.76;74.25;101237.06;1825388;78;21412;-86
2022/10/05 01:05:42;;;;;;;4.08;2.90;;;;;;;8.77;74.50;101237.91;1825873;78;21125;-86
2022/10/05 01:08:30;;;;;;;5.80;3.70;;;;;;;8.77;74.69;101237.91;1825926;78;21314;-87
2022/10/05 01:11:15;;;;;;;4.55;3.60;;;;;;;8.76;74.83;101238.80;1825289;78;20883;-86
2022/10/05 01:14:24;;;;;;;4.12;3.75;;;;;;;8.74;74.82;101248.05;1825306;78;20970;-86
2022/10/05 01:17:09;;;;;;;4.60;3.20;;;;;;;8.74;74.91;101246.73;1825025;78;20973;-86
2022/10/05 01:20:26;;;;;;;5.58;3.83;;;;;;;8.71;75.07;101252.08;1825108;78;21140;-86
2022/10/05 01:23:23;;;;;;;6.10;5.28;;;;;;;8.69;75.20;101255.20;1825402;78;20891;-85
2022/10/05 01:26:11;;;;;;;6.78;3.87;;;;;;;8.67;75.34;101259.65;1825357;78;20967;-86
2022/10/05 01:28:53;;;;;;;3.85;3.27;;;;;;;8.65;75.37;101263.66;1825404;78;20895;-87
2022/10/05 01:31:27;;;;;;;3.62;3.12;;;;;;;8.65;75.38;101270.20;1827489;78;21069;-87
2022/10/05 01:34:23;;;;;;;3.87;3.30;;;;;;;8.65;75.21;101271.50;1828345;77;21110;-86
2022/10/05 01:37:30;;;;;;;7.00;3.50;;;;;;;8.64;75.17;101269.78;1828065;78;20978;-87
2022/10/05 01:40:11;;;;;;;5.60;3.35;;;;;;;8.63;75.24;101273.79;1825287;78;21368;-88
2022/10/05 01:42:55;;;;;;;5.00;3.52;;;;;;;8.62;75.30;101265.54;1823839;78;20907;-88
2022/10/05 01:45:42;;;;;;;6.97;6.15;;;;;;;8.60;75.51;101262.97;1824024;78;20974;-87
2022/10/05 01:48:19;;;;;;;4.25;3.58;;;;;;;8.60;75.60;101266.05;1825164;78;21227;-86
2022/10/05 01:51:04;;;;;;;4.03;3.60;;;;;;;8.59;75.81;101273.05;1826532;78;20891;-85
2022/10/05 01:54:09;;;;;;;6.30;4.47;;;;;;;8.58;76.04;101263.53;1827638;78;20892;-85
2022/10/05 01:56:51;;;;;;;6.33;3.87;;;;;;;8.58;76.26;101279.21;1825709;78;20927;-86
2022/10/05 01:59:29;;;;;;;4.85;3.92;;;;;;;8.59;76.38;101280.05;1825051;78;20974;-86
2022/10/05 02:02:15;;;;;;;4.17;3.80;;;;;;;8.60;76.37;101283.05;1824895;77;21322;-87
2022/10/05 02:04:56;;;;;;;;;;;;;;;8.60;76.41;101289.12;1827390;77;21381;-87
2022/10/05 02:08:07;;;;;;;4.58;4.17;;;;;;;8.60;76.41;101283.05;1823690;78;20406;-87
2022/10/05 02:10:46;;;;;;;4.53;4.05;;;;;;;8.60;76.43;101291.73;1824870;78;20864;-86
2022/10/05 02:13:37;;;;;;;3.58;3.27;;;;;;;8.60;76.54;101293.50;1824344;77;21401;-87
2022/10/05 02:16:27;;;;;;;5.22;3.90;;;;;;;8.58;76.60;101288.36;1824844;77;21123;-87
2022/10/05 02:18:58;;;;;;;4.20;3.33;;;;;;;8.56;76.74;101294.11;1825076;78;20915;-85
2022/10/05 02:21:25;;;;;;;3.90;3.47;;;;;;;8.55;76.87;101292.85;1824994;77;20931;-85
2022/10/05 02:23:55;;;;;;;5.35;3.58;;;;;;;8.54;76.95;101299.85;1824931;78;20919;-86
2022/10/05 02:26:23;;;;;;;5.62;3.85;;;;;;;8.54;76.99;101298.55;1824920;78;20891;-86
2022/10/05 02:28:53;;;;;;;3.98;3.20;;;;;;;8.54;76.99;101297.67;1827441;76;21206;-86
2022/10/05 02:31:32;;;;;;;4.35;3.47;;;;;;;8.52;77.04;101295.14;1798192;78;21014;-86
2022/10/05 02:34:29;;;;;;;8.33;3.45;;;;;;;8.51;77.07;101290.81;1827102;77;20959;-86
2022/10/05 02:37:15;;;;;;;4.85;3.67;;;;;;;8.50;77.08;101293.88;1821603;77;21326;-86
2022/10/05 02:40:13;;;;;;;4.83;3.20;;;;;;;8.50;77.05;101302.19;1823262;78;20892;-85
2022/10/05 02:43:10;;;;;;;8.78;7.92;;;;;;;8.50;77.09;101304.80;1824877;78;21163;-86
2022/10/05 02:46:06;;;;;;;7.53;4.05;;;;;;;8.49;77.14;101305.70;1788592;79;20908;-86
2022/10/05 02:48:53;;;;;;;4.22;3.58;;;;;;;8.45;77.24;101305.45;1788422;80;20873;-86
2022/10/05 02:51:25;;;;;;;3.80;3.50;;;;;;;8.44;77.37;101317.65;1759758;80;21010;-88
2022/10/05 02:54:00;;;;;;;4.15;3.83;;;;;;;8.43;77.47;101321.66;1762496;81;21050;-85
2022/10/05 02:56:33;;;;;;;4.08;3.67;;;;;;;8.40;77.62;101321.72;1760474;79;21240;-86
2022/10/05 02:59:22;;;;;;;7.45;4.87;;;;;;;8.39;77.73;101330.48;1762344;79;20984;-86
2022/10/05 03:02:05;;;;;;;5.47;4.37;;;;;;;8.36;77.84;101332.77;1762388;79;20876;-86
2022/10/05 03:04:47;;;;;;;4.53;3.85;;;;;;;8.37;77.97;101352.75;1762491;81;20939;-86
2022/10/05 03:07:42;;;;;;;4.25;3.85;;;;;;;8.37;78.01;101353.22;1762294;79;21537;-85
2022/10/05 03:10:12;;;;;;;;;;;;;;;8.37;78.10;101361.05;1765200;79;21258;-86
2022/10/05 03:12:53;;;;;;;6.85;4.25;;;;;;;8.37;78.20;101363.67;1737269;80;20128;-85
2022/10/05 03:15:53;;;;;;;8.25;3.85;;;;;;;8.35;78.30;101365.48;1762527;79;20998;-85
2022/10/05 03:18:49;;;;;;;3.85;3.47;;;;;;;8.36;78.39;101375.89;1762712;79;21031;-86
2022/10/05 03:22:02;;;;;;;4.37;3.67;;;;;;;8.37;78.49;101378.05;1775819;77;20900;-86
2022/10/05 03:25:00;;;;;;;5.00;4.12;;;;;;;8.37;78.54;101385.42;1797606;79;21142;-86
2022/10/05 03:27:40;;;;;;;7.45;5.30;;;;;;;8.40;78.62;101393.59;1800563;78;20848;-86
2022/10/05 03:30:16;;;;;;;5.83;3.60;;;;;;;8.41;78.69;101396.66;1800754;77;20904;-85
2022/10/05 03:33:00;;;;;;;5.60;3.90;;;;;;;8.43;78.73;101403.98;1799398;78;20930;-84
2022/10/05 03:35:51;;;;;;;6.28;4.00;;;;;;;8.45;78.72;101401.70;1797896;77;20899;-87
2022/10/05 03:38:49;;;;;;;5.30;4.30;;;;;;;8.48;78.73;101405.95;1797418;77;21133;-86
2022/10/05 03:41:42;;;;;;;4.30;3.87;;;;;;;8.50;78.68;101410.20;1797370;77;20926;-87
2022/10/05 03:44:24;;;;;;;5.85;4.12;;;;;;;8.52;78.62;101414.55;1797565;79;20966;-86
2022/10/05 03:46:56;;;;;;;4.60;4.20;;;;;;;8.51;78.57;101417.59;1797644;79;20919;-86
2022/10/05 03:49:42;;;;;;;5.50;4.20;;;;;;;8.50;78.55;101419.36;1793471;78;21369;-86
2022/10/05 03:52:32;;;;;;;4.37;3.98;;;;;;;8.49;78.60;101416.80;1825087;77;26572;-86
2022/10/05 03:55:29;;;;;;;4.72;4.28;;;;;;;8.50;78.62;101419.82;1824973;77;20839;-88
2022/10/05 03:57:58;;;;;;;5.97;4.47;;;;;;;8.49;78.66;101425.52;1824891;77;20875;-86
2022/10/05 04:00:26;;;;;;;7.95;5.05;;;;;;;8.49;78.71;101435.97;1824966;77;20872;-88
2022/10/05 04:03:25;;;;;;;5.65;4.78;;;;;;;8.49;78.78;101435.97;1825070;77;21045;-87
2022/10/05 04:06:09;;;;;;;6.53;4.55;;;;;;;8.49;78.86;101441.20;1825079;77;21388;-88
2022/10/05 04:08:51;;;;;;;5.80;4.20;;;;;;;8.50;79.00;101436.81;1826297;77;20915;-86
2022/10/05 04:11:36;;;;;;;6.22;4.87;;;;;;;8.53;79.16;101443.68;1826256;77;21530;-90
2022/10/05 04:14:18;;;;;;;6.90;4.78;;;;;;;8.57;79.22;101443.97;1825137;77;20935;-87
2022/10/05 04:16:57;;;;;;;5.83;4.87;;;;;;;8.60;79.26;101445.98;1824970;77;21022;-87
2022/10/05 04:19:43;;;;;;;10.00;4.65;;;;;;;8.65;79.27;101451.06;1824805;77;21142;-85
2022/10/05 04:22:40;;;;;;;5.70;4.72;;;;;;;8.70;79.27;101456.50;1824971;78;21013;-86
2022/10/05 04:25:19;;;;;;;13.32;7.60;;;;;;;8.76;79.33;101453.23;1823720;77;20895;-86
2022/10/05 04:27:59;;;;;;;22.17;11.20;;;;;;;8.82;79.31;101457.77;1825011;78;20864;-88
2022/10/05 04:30:26;;;;;;;14.75;7.65;;;;;;;8.90;79.36;101454.88;1823112;77;21424;-85
2022/10/05 04:32:58;;;;;;;11.50;7.53;;;;;;;9.01;79.29;101457.91;1824994;77;21151;-88
2022/10/05 04:36:10;;;;;;;13.78;7.22;;;;;;;9.10;79.18;101458.84;1797887;78;21053;-87
2022/10/05 04:39:07;;;;;;;11.65;9.38;;;;;;;9.23;79.07;101459.67;1824829;77;20970;-89
2022/10/05 04:41:59;;;;;;;10.72;7.95;;;;;;;9.39;78.88;101463.35;1823629;78;21392;-87
2022/10/05 04:44:46;;;;;;;15.63;11.65;;;;;;;9.55;78.62;101464.40;1824701;78;20844;-89
2022/10/05 04:47:45;;;;;;;12.70;7.62;;;;;;;9.73;78.33;101468.47;1824942;77;21198;-89
2022/10/05 04:50:20;;;;;;;14.50;9.93;;;;;;;9.90;77.94;101462.52;1824536;77;20879;-89
2022/10/05 04:53:09;;;;;;;8.18;5.00;;;;;;;10.12;77.59;101475.06;1822629;78;20914;-86
2022/10/05 04:55:48;;;;;;;6.65;5.78;;;;;;;10.29;77.07;101465.61;1824288;78;20930;-85
2022/10/05 04:58:36;;;;;;;6.12;4.25;;;;;;;10.45;76.41;101465.76;1824978;78;20880;-87
2022/10/05 05:01:48;;;;;;;9.20;4.58;;;;;;;10.60;75.93;101465.05;1825473;78;21314;-87
2022/10/05 05:04:43;;;;;;;5.45;3.65;;;;;;;10.74;75.37;101469.22;1824886;78;20872;-90
2022/10/05 05:07:35;;;;;;;7.12;3.35;;;;;;;10.89;74.65;101464.98;1824982;78;21037;-86
2022/10/05 05:10:42;;;;;;;12.58;4.03;;;;;;;11.03;74.31;101461.73;1820125;78;20876;-87
2022/10/05 05:13:36;;;;;;;6.12;3.77;;;;;;;11.20;73.81;101464.39;1824914;78;21333;-87
2022/10/05 05:16:35;;;;;;;5.17;4.08;;;;;;;11.36;73.14;101460.53;1803597;78;21251;-86
2022/10/05 05:19:32;;;;;;;5.15;3.02;;;;;;;11.51;72.54;101463.31;1824805;78;20931;-86
2022/10/05 05:22:07;;;;;;;8.25;3.55;;;;;;;11.65;72.12;101466.54;1821804;78;20911;-86
2022/10/05 05:24:47;;;;;;;10.82;5.62;;;;;;;11.80;71.70;101470.58;1824786;78;20946;-85
2022/10/05 05:27:37;;;;;;;13.05;6.67;;;;;;;11.99;71.34;101468.33;1824847;78;20875;-86
2022/10/05 05:30:22;;;;;;;12.33;6.42;;;;;;;12.14;70.84;101468.84;1824873;78;21789;-86
2022/10/05 05:33:14;;;;;;;11.25;4.92;;;;;;;12.32;70.28;101459.12;1824127;78;20907;-87
2022/10/05 05:36:24;;;;;;;100.07;87.92;;;;;;;12.48;69.67;101468.34;1824972;78;20947;-85
2022/10/05 05:39:27;;;;;;;10.53;9.30;;;;;;;12.63;69.21;101460.92;1825038;78;20927;-85
2022/10/05 05:42:03;;;;;;;25.65;21.10;;;;;;;12.89;68.83;101465.66;1824948;78;20859;-86
2022/10/05 05:44:44;;;;;;;5.75;5.03;;;;;;;13.54;68.36;101468.11;1807132;78;21017;-84
2022/10/05 05:47:24;;;;;;;4.53;3.60;;;;;;;14.49;66.67;101466.28;1828383;77;20920;-85
2022/10/05 05:50:06;;;;;;;3.70;3.30;;;;;;;16.45;60.06;101464.70;1827449;78;20971;-84
2022/10/05 05:52:40;;;;;;;3.40;3.10;;;;;;;16.45;60.06;101464.70;1823052;77;20970;-84
2022/10/05 05:55:35;;;;;;;5.10;2.40;;;;;;;17.34;57.89;101463.52;1822403;77;20959;-84
2022/10/05 05:58:14;;;;;;;5.80;2.83;;;;;;;18.26;55.20;101463.11;1821896;78;21128;-85
2022/10/05 06:00:46;;;;;;;2.83;2.40;;;;;;;19.06;51.96;101460.69;1794246;78;20998;-86
2022/10/05 06:05:35;;;;;;;3.22;2.92;;;;;;;20.33;48.52;101451.67;1856418;76;22717;-85
2022/10/05 06:08:44;;;;;;;3.05;2.75;;;;;;;20.86;46.70;101458.56;1792250;78;20829;-86
2022/10/05 06:11:26;;;;;;;4.03;2.15;;;;;;;21.46;45.33;101457.95;1821725;78;21128;-85
2022/10/05 06:13:59;;;;;;;4.90;2.45;;;;;;;22.18;43.53;101450.78;1823831;78;20911;-85
2022/10/05 06:16:35;;;;;;;5.05;2.50;;;;;;;22.78;42.10;101453.02;1822704;78;20915;-85
2022/10/05 06:19:11;;;;;;;9.83;7.35;;;;;;;23.27;41.01;101452.16;1823343;78;20923;-84
2022/10/05 06:22:06;;;;;;;5.03;2.40;;;;;;;23.84;39.85;101447.23;1823919;78;21007;-85
2022/10/05 06:24:41;;;;;;;9.18;2.42;;;;;;;24.34;38.89;101454.48;1823630;78;21972;-85
2022/10/05 06:27:39;;;;;;;3.37;2.20;;;;;;;24.90;38.19;101448.62;1823599;78;20918;-84
2022/10/05 06:30:12;;;;;;;3.90;2.67;;;;;;;25.11;37.31;101453.02;1823754;78;20955;-85
2022/10/05 06:33:16;;;;;;;3.15;2.85;;;;;;;25.05;36.57;101449.64;1823666;78;20978;-84
2022/10/05 06:36:08;;;;;;;6.90;3.05;;;;;;;24.74;36.67;101459.66;1823894;78;20883;-85
2022/10/05 06:39:12;;;;;;;4.30;3.12;;;;;;;24.40;37.06;101457.03;1823508;78;21233;-89
2022/10/05 06:41:47;;;;;;;6.00;3.37;;;;;;;24.20;37.32;101461.81;1825299;78;20911;-85
2022/10/05 06:44:45;;;;;;;6.42;3.20;;;;;;;23.96;37.50;101468.72;1823802;78;21318;-85
2022/10/05 06:47:29;;;;;;;5.20;3.45;;;;;;;23.67;37.96;101466.34;1819966;78;20943;-86
2022/10/05 06:50:18;;;;;;;3.90;2.85;;;;;;;23.30;38.40;101463.87;1770724;78;20899;-88
2022/10/05 06:53:51;;;;;;;2.90;2.70;;;;;;;22.97;38.96;101465.75;1821540;78;21345;-88
2022/10/05 06:56:47;;;;;;;8.75;3.08;;;;;;;22.54;39.67;101473.13;1823420;78;20955;-85
2022/10/05 06:59:30;;;;;;;3.42;2.17;;;;;;;22.09;40.26;101473.38;1793869;78;21496;-86
2022/10/05 07:02:06;;;;;;;3.22;2.20;;;;;;;21.68;41.04;101467.97;1822257;78;20959;-88
2022/10/05 07:05:05;;;;;;;2.60;2.40;;;;;;;21.27;41.77;101469.44;1774001;78;20900;-86
2022/10/05 07:07:48;;;;;;;2.92;2.72;;;;;;;20.90;42.45;101475.48;1801074;78;21230;-86
2022/10/05 07:10:42;;;;;;;4.92;3.05;;;;;;;20.50;43.32;101483.50;1800876;78;21282;-86
2022/10/05 07:13:42;;;;;;;4.47;3.08;;;;;;;20.23;43.92;101474.76;1800866;78;20883;-87
2022/10/05 07:16:44;;;;;;;16.27;13.45;;;;;;;19.97;44.49;101474.38;1786622;79;20899;-85
2022/10/05 07:19:34;;;;;;;5.50;4.67;;;;;;;19.72;45.03;101477.81;1800061;78;20887;-86
2022/10/05 07:22:21;;;;;;;5.58;4.33;;;;;;;19.70;45.53;101484.22;1800142;78;21138;-85
2022/10/05 07:24:57;;;;;;;4.80;3.45;;;;;;;20.19;45.39;101485.35;1794798;78;20895;-86
2022/10/05 07:27:30;;;;;;;12.58;8.63;;;;;;;20.85;44.43;101488.39;1799454;79;20856;-89
2022/10/05 07:30:09;;;;;;;6.25;4.22;;;;;;;21.53;43.08;101488.92;1799749;79;21051;-86
2022/10/05 07:33:04;;;;;;;4.58;3.05;;;;;;;22.24;41.93;101495.66;1798630;77;20962;-86
2022/10/05 07:39:05;;;;;;;6.85;3.30;;;;;;;23.10;40.13;101514.04;1770780;78;21408;-86
2022/10/05 07:41:47;;;;;;;5.78;3.58;;;;;;;23.52;39.47;101508.06;1799504;78;21384;-87
2022/10/05 07:44:39;;;;;;;3.17;2.72;;;;;;;23.96;38.52;101510.75;1798235;78;21400;-84
2022/10/05 07:47:32;;;;;;;2.42;2.22;;;;;;;24.47;37.74;101509.52;1797493;78;20997;-84
2022/10/05 07:50:19;;;;;;;3.17;2.37;;;;;;;24.91;36.92;101515.55;1768870;79;21312;-85
2022/10/05 07:52:59;;;;;;;2.45;2.25;;;;;;;25.42;36.08;101518.17;1796022;79;20883;-84
2022/10/05 07:55:34;;;;;;;3.60;2.50;;;;;;;25.96;35.37;101527.88;1798066;77;21479;-85
2022/10/05 07:58:37;;;;;;;3.12;2.67;;;;;;;26.40;34.53;101521.20;1798191;78;20860;-86
2022/10/05 08:01:19;;;;;;;3.15;2.52;;;;;;;26.64;33.94;101519.78;1798415;79;20907;-85
2022/10/05 08:03:59;;;;;;;4.55;2.62;;;;;;;26.88;33.66;101522.85;1804300;78;21521;-86
2022/10/05 08:07:02;;;;;;;3.47;2.40;;;;;;;27.08;33.33;101531.31;1824484;78;21152;-84
2022/10/05 08:09:41;;;;;;;3.75;2.92;;;;;;;27.21;33.08;101529.41;1798994;78;20958;-85
2022/10/05 08:12:27;;;;;;;4.85;3.17;;;;;;;27.46;32.78;101525.17;1827618;78;20935;-85
2022/10/05 08:15:20;;;;;;;5.08;2.80;;;;;;;27.66;32.82;101534.42;1827489;78;20836;-85
2022/10/05 08:18:01;;;;;;;4.90;2.72;;;;;;;27.96;32.52;101531.79;1827365;78;21068;-86
2022/10/05 08:20:47;;;;;;;3.25;2.62;;;;;;;28.27;31.90;101537.02;1827289;78;20966;-86
2022/10/05 08:23:41;;;;;;;4.12;2.47;;;;;;;28.47;31.78;101534.61;1806416;78;20888;-85
2022/10/05 08:26:27;;;;;;;6.83;3.22;;;;;;;28.32;31.66;101533.75;1827099;78;20963;-86
2022/10/05 08:29:12;;;;;;;6.17;3.72;;;;;;;28.04;31.38;101534.93;1827266;78;20872;-85
2022/10/05 08:31:43;;;;;;;13.60;12.23;;;;;;;27.52;31.63;101545.98;1805329;78;21177;-88
2022/10/05 08:34:49;;;;;;;9.63;6.65;;;;;;;27.20;32.38;101547.05;1827183;78;20943;-87
2022/10/05 08:37:21;;;;;;;4.10;2.65;;;;;;;27.10;32.34;101544.57;1825619;78;20911;-87
2022/10/05 08:40:24;;;;;;;3.00;1.82;;;;;;;27.03;32.84;101539.06;1822508;78;20883;-88
2022/10/05 08:43:08;;;;;;;3.95;3.60;;;;;;;26.83;32.88;101550.78;1825433;78;21092;-86
2022/10/05 08:45:56;;;;;;;3.55;2.02;;;;;;;26.43;32.95;101545.89;1825425;78;21243;-85
2022/10/05 08:48:41;;;;;;;3.87;1.92;;;;;;;26.13;33.16;101542.65;1825332;78;21334;-86
2022/10/05 08:51:30;;;;;;;2.83;2.30;;;;;;;26.03;33.30;101540.99;1825611;78;20927;-84
2022/10/05 08:54:40;;;;;;;2.87;2.30;;;;;;;26.21;33.56;101550.19;1826932;78;20951;-86
2022/10/05 08:57:30;;;;;;;2.83;2.05;;;;;;;26.49;33.45;101544.88;1827530;78;20958;-84
2022/10/05 09:00:21;;;;;;;6.65;2.33;;;;;;;26.93;32.83;101534.43;1827332;78;21491;-86
2022/10/05 09:03:05;;;;;;;3.47;2.10;;;;;;;27.13;32.21;101533.47;1827714;77;20978;-87
2022/10/05 09:05:49;;;;;;;4.25;2.17;;;;;;;27.34;32.41;101534.17;1828389;77;20880;-86
2022/10/05 09:08:53;;;;;;;3.22;1.57;;;;;;;27.61;32.00;101543.54;1825109;78;20968;-85
2022/10/05 09:11:38;;;;;;;4.03;2.20;;;;;;;27.49;31.86;101535.58;1824098;78;20899;-84
2022/10/05 09:14:33;;;;;;;3.83;1.65;;;;;;;27.45;31.53;101534.26;1824094;78;20949;-87
2022/10/05 09:17:37;;;;;;;4.00;1.92;;;;;;;27.13;31.87;101538.85;1824068;78;20931;-85
2022/10/05 09:20:30;;;;;;;4.20;2.40;;;;;;;26.58;32.00;101547.38;1819523;78;20923;-85
2022/10/05 09:23:28;;;;;;;5.62;3.17;;;;;;;25.71;32.68;101548.55;1823625;78;21016;-86
2022/10/05 09:26:01;;;;;;;6.78;4.28;;;;;;;24.85;33.91;101546.22;1822335;78;21408;-85
2022/10/05 09:28:39;;;;;;;5.83;3.08;;;;;;;23.99;35.42;101553.33;1823561;78;21380;-86
2022/10/05 09:31:17;;;;;;;8.30;3.70;;;;;;;23.38;36.66;101558.98;1820604;78;20928;-88
2022/10/05 09:34:30;;;;;;;7.40;4.37;;;;;;;22.80;37.65;101556.17;1816655;79;20884;-85
2022/10/05 09:37:52;;;;;;;7.95;4.53;;;;;;;22.37;39.03;101555.44;1815808;79;21503;-86
2022/10/05 09:40:48;;;;;;;16.77;5.15;;;;;;;21.89;39.59;101547.38;1815212;79;21464;-87
2022/10/05 09:43:26;;;;;;;8.10;4.90;;;;;;;21.44;40.08;101549.33;1815130;78;21244;-89
2022/10/05 09:46:19;;;;;;;8.70;4.67;;;;;;;21.04;40.87;101554.23;1815172;79;20872;-86
2022/10/05 09:49:17;;;;;;;6.65;5.00;;;;;;;20.70;41.16;101553.73;1815675;79;20927;-88
2022/10/05 09:52:17;;;;;;;5.50;3.70;;;;;;;20.40;41.97;101546.56;1772526;79;20931;-87
2022/10/05 09:55:40;;;;;;;5.60;2.65;;;;;;;20.16;42.35;101537.53;1815492;79;20911;-87
2022/10/05 09:58:32;;;;;;;4.55;2.90;;;;;;;19.92;42.59;101536.48;1816857;79;21539;-87
2022/10/05 10:01:19;;;;;;;4.37;3.00;;;;;;;19.81;42.80;101538.71;1816246;77;20955;31
2022/10/05 10:04:19;;;;;;;4.40;2.90;;;;;;;20.16;42.84;101536.20;1685294;85;20936;-90
2022/10/05 10:07:42;;;;;;;7.47;3.92;;;;;;;20.78;42.29;101539.22;1629054;86;20967;-87
2022/10/05 10:10:43;;;;;;;3.83;2.98;;;;;;;21.32;41.13;101533.92;1668204;86;20921;-85
2022/10/05 10:13:30;;;;;;;8.33;5.40;;;;;;;21.82;40.22;101536.09;1684193;85;21081;-86
2022/10/05 10:16:27;;;;;;;12.33;9.68;;;;;;;22.35;39.47;101539.57;1684764;84;20951;-86
2022/10/05 10:19:41;;;;;;;12.35;9.35;;;;;;;22.94;38.91;101538.30;1670142;86;21047;-84
2022/10/05 10:22:50;;;;;;;15.60;11.20;;;;;;;23.69;37.67;101534.48;1683940;84;21480;-86
2022/10/05 10:25:55;;;;;;;8.50;5.33;;;;;;;24.45;36.10;101536.98;1668946;86;21107;-88
2022/10/05 10:29:04;;;;;;;12.13;10.85;;;;;;;24.99;35.03;101538.87;1668361;86;21154;-85
2022/10/05 10:31:48;;;;;;;3.92;2.47;;;;;;;24.98;34.87;101544.75;1668774;86;20884;-86
2022/10/05 10:34:46;;;;;;;9.25;5.70;;;;;;;24.78;35.11;101540.67;1636004;86;20968;-88
2022/10/05 10:37:56;;;;;;;4.22;2.30;;;;;;;24.44;35.05;101552.75;1684247;85;21025;-85
2022/10/05 10:40:27;;;;;;;2.80;1.77;;;;;;;23.94;35.60;101550.27;1668627;86;20924;-84
2022/10/05 10:43:29;;;;;;;3.52;1.60;;;;;;;23.94;36.62;101552.44;1668635;86;21173;-87
2022/10/05 10:46:25;;;;;;;2.12;1.37;;;;;;;24.04;36.40;101551.52;1648051;85;21446;-86
2022/10/05 10:49:16;;;;;;;3.42;1.35;;;;;;;23.92;35.76;101552.25;1684376;85;20994;-86
2022/10/05 10:52:12;;;;;;;7.65;2.00;;;;;;;23.69;35.98;101554.58;1669666;86;20999;-87
2022/10/05 10:54:56;;;;;;;4.83;1.50;;;;;;;23.54;36.46;101548.44;1669299;86;20908;-85
2022/10/05 10:57:46;;;;;;;4.80;1.52;;;;;;;23.37;36.62;101543.94;1669236;86;21193;-86
2022/10/05 11:00:40;;;;;;;4.30;1.75;;;;;;;23.16;36.74;101539.70;1669829;86;21517;-86
2022/10/05 11:03:32;;;;;;;3.62;1.40;;;;;;;23.13;37.56;101542.69;1669335;85;20932;-87
2022/10/05 11:06:15;;;;;;;10.00;1.98;;;;;;;23.32;37.71;101528.80;1669065;86;21327;-88
2022/10/05 11:09:28;;;;;;;3.37;1.40;;;;;;;23.55;37.43;101532.70;1640298;86;20921;-86
2022/10/05 11:12:37;;;;;;;4.12;1.05;;;;;;;23.58;37.07;101531.05;1669850;86;21989;-84
2022/10/05 11:15:24;;;;;;;1.17;0.90;;;;;;;23.48;37.11;101534.33;1686658;85;20993;-84
2022/10/05 11:18:14;;;;;;;8.28;1.65;;;;;;;23.34;37.21;101540.20;1669798;86;21050;-86
2022/10/05 11:20:56;;;;;;;1.75;1.10;;;;;;;23.11;37.04;101541.16;1669689;86;20905;-85
2022/10/05 11:24:05;;;;;;;1.27;1.17;;;;;;;22.87;37.04;101540.36;1669480;86;20979;-87
2022/10/05 11:26:40;;;;;;;8.13;1.12;;;;;;;22.58;37.44;101548.55;1668762;86;21317;-84
2022/10/05 11:29:29;;;;;;;1.42;1.10;;;;;;;22.29;38.22;101549.00;1669218;86;20968;-86
2022/10/05 11:32:18;;;;;;;2.08;1.25;;;;;;;21.97;38.84;101549.85;1668704;86;20983;-87
2022/10/05 11:35:27;;;;;;;3.65;1.47;;;;;;;21.63;39.70;101547.62;1668646;86;21103;-86
2022/10/05 11:38:18;;;;;;;1.75;1.50;;;;;;;21.28;40.27;101552.52;1659844;86;21106;-86
2022/10/05 11:41:05;;;;;;;4.22;1.35;;;;;;;20.86;40.88;101551.88;1668378;86;21276;-87
2022/10/05 11:44:27;;;;;;;2.45;1.20;;;;;;;20.58;41.80;101557.47;1668422;86;20885;-85
2022/10/05 11:47:04;;;;;;;1.37;0.93;;;;;;;20.34;41.84;101558.58;1668629;86;20941;-86
2022/10/05 11:49:43;;;;;;;1.95;1.12;;;;;;;20.04;42.54;101562.07;1655082;86;20937;-86
2022/10/05 11:52:22;;;;;;;4.55;1.12;;;;;;;19.82;42.52;101566.55;1685074;85;21405;-86
2022/10/05 11:55:12;;;;;;;3.58;1.35;;;;;;;19.64;43.27;101571.56;1668560;86;21394;-85
2022/10/05 11:58:06;;;;;;;1.45;0.90;;;;;;;19.51;43.45;101567.39;1685254;84;20884;-86
2022/10/05 12:00:41;;;;;;;1.15;1.00;;;;;;;19.37;43.96;101564.55;1667803;86;20995;-86
2022/10/05 12:03:31;;;;;;;3.10;1.27;;;;;;;19.21;43.91;101562.30;1668601;85;28057;-86
2022/10/05 12:06:33;;;;;;;1.32;1.22;;;;;;;19.09;43.96;101559.30;1668434;86;20983;-84
2022/10/05 12:10:12;;;;;;;3.08;1.47;;;;;;;18.95;44.55;101556.42;1685724;84;21239;-88
2022/10/05 12:12:13;;;;;;;3.47;1.90;;;;;;;18.88;44.59;101556.56;1668059;86;21020;-85
2022/10/05 12:15:33;;;;;;;4.53;2.75;;;;;;;18.80;45.15;101555.84;1668800;86;21402;-87
2022/10/05 12:18:32;;;;;;;2.17;1.98;;;;;;;18.78;45.72;101559.09;1582420;87;20993;-86
2022/10/05 12:21:21;;;;;;;3.45;1.60;;;;;;;18.76;45.96;101564.48;1582735;87;20903;-87
2022/10/05 12:24:03;;;;;;;2.22;1.25;;;;;;;18.73;45.26;101569.22;1582886;87;21278;-88
2022/10/05 12:26:43;;;;;;;1.42;1.32;;;;;;;18.59;45.38;101570.33;1582489;87;20999;-87
2022/10/05 12:29:32;;;;;;;1.65;1.22;;;;;;;18.50;45.65;101573.67;1583218;90;20967;-85
2022/10/05 12:32:15;;;;;;;2.05;1.47;;;;;;;18.40;45.55;101566.92;1582679;90;20963;-85
2022/10/05 12:35:10;;;;;;;2.17;1.72;;;;;;;18.30;45.27;101572.60;1581527;90;21092;-86
2022/10/05 12:37:54;;;;;;;1.72;1.27;;;;;;;18.25;45.51;101580.05;1580966;90;21498;-84
2022/10/05 12:40:27;;;;;;;1.90;1.80;;;;;;;18.21;45.70;101584.29;1572882;90;20899;-84
2022/10/05 12:43:25;;;;;;;1.55;1.45;;;;;;;18.12;45.90;101586.33;1583106;90;21073;-84
2022/10/05 12:46:19;;;;;;;4.80;3.75;;;;;;;18.00;45.91;101579.28;1582695;90;20953;-84
2022/10/05 12:48:55;;;;;;;7.80;5.62;;;;;;;17.88;45.82;101586.37;1581393;89;21005;-83
2022/10/05 12:51:33;;;;;;;16.75;13.32;;;;;;;17.77;46.23;101585.82;1582034;90;21554;-85
2022/10/05 12:54:33;;;;;;;4.17;2.67;;;;;;;17.69;46.09;101589.52;1625689;86;20984;-86
2022/10/05 12:57:14;;;;;;;3.87;2.30;;;;;;;17.62;46.63;101597.58;1668588;86;20924;-86
2022/10/05 12:59:53;;;;;;;3.72;1.72;;;;;;;17.53;47.12;101593.79;1668392;86;21059;-86
2022/10/05 13:02:41;;;;;;;3.10;1.50;;;;;;;17.46;47.16;101600.52;1653560;86;20904;-86
2022/10/05 13:05:30;;;;;;;2.70;2.12;;;;;;;17.39;47.44;101600.61;1668382;86;22296;-85
2022/10/05 13:08:24;;;;;;;5.30;3.05;;;;;;;17.34;47.40;101609.35;1682940;84;20955;-86